createdAt,value
2018-10-17T00:00:09.266Z,68.2
2018-10-17T00:05:09.316Z,68.8
2018-10-17T00:10:08.869Z,69.5
2018-10-17T00:15:19.729Z,70.7
2018-10-17T00:20:09.987Z,71.3
2018-10-17T00:25:10.190Z,70.7
2018-10-17T00:30:14.835Z,71.2
2018-10-17T00:35:09.286Z,71.2
2018-10-17T00:40:10.528Z,71.5
2018-10-17T00:45:15.701Z,71.1
2018-10-17T00:50:09.957Z,71.6
2018-10-17T00:55:08.642Z,71.5
2018-10-17T01:00:18.299Z,72.3
2018-10-17T01:05:08.556Z,72.6
2018-10-17T01:10:11.831Z,73.2
2018-10-17T01:15:12.312Z,73.6
2018-10-17T01:20:08.924Z,74
2018-10-17T01:25:09.319Z,73.6
2018-10-17T01:30:17.470Z,73.6
2018-10-17T01:35:08.414Z,73.9
2018-10-17T01:40:09.321Z,74
2018-10-17T01:45:13.448Z,75.2
2018-10-17T01:50:09.220Z,76.6
2018-10-17T01:55:14.236Z,77.2
2018-10-17T02:00:10.679Z,77.7
2018-10-17T02:05:09.163Z,77.8
2018-10-17T02:10:09.839Z,77.7
2018-10-17T02:15:14.931Z,77.9
2018-10-17T02:20:09.085Z,77.7
2018-10-17T02:25:09.697Z,78.4
2018-10-17T02:30:12.113Z,78.6
2018-10-17T02:35:08.316Z,78.9
2018-10-17T02:40:09.083Z,79.2
2018-10-17T02:45:09.158Z,77.9
2018-10-17T02:50:09.320Z,77.6
2018-10-17T02:55:09.879Z,78.6
2018-10-17T03:00:13.532Z,77.7
2018-10-17T03:05:08.644Z,78.9
2018-10-17T03:10:08.535Z,80.1
2018-10-17T03:15:10.173Z,79.3
2018-10-17T03:20:08.508Z,79
2018-10-17T03:25:09.170Z,78.4
2018-10-17T03:30:12.588Z,78.4
2018-10-17T03:35:08.276Z,78.9
2018-10-17T03:40:09.004Z,79.3
2018-10-17T03:45:09.223Z,79.3
2018-10-17T03:50:08.161Z,79.2
2018-10-17T03:55:08.602Z,80.8
2018-10-17T04:00:10.034Z,80.1
2018-10-17T04:05:08.396Z,79.8
2018-10-17T04:10:08.639Z,80.6
2018-10-17T04:15:08.806Z,81.1
2018-10-17T04:20:08.992Z,82
2018-10-17T04:25:08.492Z,86.5
2018-10-17T04:30:09.525Z,85.4
2018-10-17T04:35:09.241Z,86.7
2018-10-17T04:40:08.259Z,84.7
2018-10-17T04:45:09.927Z,87.4
2018-10-17T04:50:08.576Z,86.6
2018-10-17T04:55:08.447Z,85.5
2018-10-17T05:00:09.769Z,87
2018-10-17T05:05:09.791Z,87.9
2018-10-17T05:10:08.469Z,88
2018-10-17T05:15:09.837Z,88.9
2018-10-17T05:20:08.579Z,90.7
2018-10-17T05:25:09.040Z,88.5
2018-10-17T05:30:08.383Z,90.2
2018-10-17T05:35:08.473Z,91.6
2018-10-17T05:40:08.964Z,89.5
2018-10-17T05:45:08.199Z,89.3
2018-10-17T05:50:08.006Z,89
2018-10-17T05:55:08.377Z,88.4
2018-10-17T06:00:17.135Z,88.6
2018-10-17T06:05:08.050Z,90.5
2018-10-17T06:10:08.173Z,90.8
2018-10-17T06:15:10.685Z,95.3
2018-10-17T06:20:09.563Z,96.5
2018-10-17T06:25:08.434Z,93.8
2018-10-17T06:30:09.027Z,96.4
2018-10-17T06:35:08.208Z,99.1
2018-10-17T06:40:08.302Z,100
2018-10-17T06:45:08.204Z,100
2018-10-17T06:50:07.981Z,100
2018-10-17T06:55:07.979Z,100
2018-10-17T07:00:08.434Z,100
2018-10-17T07:05:08.435Z,100
2018-10-17T07:10:07.897Z,100
2018-10-17T07:15:08.017Z,100
2018-10-17T07:20:08.263Z,100
2018-10-17T07:25:08.205Z,100
2018-10-17T07:30:09.212Z,100
2018-10-17T07:35:07.789Z,100
2018-10-17T07:40:07.717Z,100
2018-10-17T07:45:07.869Z,99.1
2018-10-17T07:50:07.891Z,98.5
2018-10-17T07:55:07.732Z,99.6
2018-10-17T08:00:08.131Z,99.9
2018-10-17T08:05:07.920Z,99.1
2018-10-17T08:10:07.885Z,100
2018-10-17T08:15:07.695Z,99.1
2018-10-17T08:20:08.028Z,98.5
2018-10-17T08:25:07.983Z,96.3
2018-10-17T08:30:08.464Z,96.7
2018-10-17T08:35:07.646Z,97.5
2018-10-17T08:40:07.895Z,95.4
2018-10-17T08:45:07.853Z,94.7
2018-10-17T08:50:08.058Z,93.6
2018-10-17T08:55:07.606Z,92.8
2018-10-17T09:00:08.072Z,92.7
2018-10-17T09:05:07.571Z,90.3
2018-10-17T09:10:07.664Z,89.2
2018-10-17T09:15:08.102Z,86.2
2018-10-17T09:20:08.191Z,86.1
2018-10-17T09:25:07.496Z,84.9
2018-10-17T09:30:07.871Z,84.8
2018-10-17T09:35:07.584Z,80.1
2018-10-17T09:40:07.670Z,79.6
2018-10-17T09:45:07.828Z,77.7
2018-10-17T09:50:07.758Z,77.6
2018-10-17T09:55:07.545Z,77.4
2018-10-17T10:00:08.064Z,76.6
2018-10-17T10:05:07.634Z,76.5
2018-10-17T10:10:07.738Z,75.8
2018-10-17T10:15:07.608Z,75.6
2018-10-17T10:20:07.381Z,74.5
2018-10-17T10:25:07.436Z,74.9
2018-10-17T10:30:07.691Z,73.7
2018-10-17T10:35:07.687Z,72
2018-10-17T10:40:07.498Z,72.6
2018-10-17T10:45:07.584Z,72.9
2018-10-17T10:50:07.481Z,69.4
2018-10-17T10:55:07.383Z,72.3
2018-10-17T11:00:07.582Z,74.8
2018-10-17T11:05:07.702Z,73.3
2018-10-17T11:10:07.750Z,73.8
2018-10-17T11:15:07.685Z,72.5
2018-10-17T11:20:09.514Z,72.3
2018-10-17T11:25:07.941Z,71
2018-10-17T11:30:10.537Z,67
2018-10-17T11:35:08.833Z,62.1
2018-10-17T11:40:07.345Z,65.3
2018-10-17T11:45:08.041Z,66.5
2018-10-17T11:50:07.577Z,66.8
2018-10-17T11:55:08.751Z,66.2
2018-10-17T12:00:07.625Z,66
2018-10-17T12:05:07.893Z,65.9
2018-10-17T12:10:07.719Z,67.3
2018-10-17T12:15:09.601Z,67.4
2018-10-17T12:20:07.427Z,66.1
2018-10-17T12:25:08.258Z,66.1
2018-10-17T12:30:07.593Z,66.2
2018-10-17T12:35:07.727Z,65.3
2018-10-17T12:40:07.734Z,65.5
2018-10-17T12:45:07.890Z,66.9
2018-10-17T12:50:07.569Z,65.2
2018-10-17T12:55:07.861Z,66.5
2018-10-17T13:00:11.712Z,63.7
2018-10-17T13:05:07.597Z,62.6
2018-10-17T13:10:07.661Z,63.6
2018-10-17T13:15:07.494Z,64.9
2018-10-17T13:20:07.734Z,62
2018-10-17T13:25:10.475Z,66
2018-10-17T13:30:10.700Z,67.5
2018-10-17T13:35:07.419Z,66.1
2018-10-17T13:40:07.558Z,66.3
2018-10-17T13:45:09.690Z,65.3
2018-10-17T13:50:09.922Z,64.7
2018-10-17T13:55:07.674Z,67
2018-10-17T14:00:08.688Z,66.8
2018-10-17T14:05:07.651Z,64.8
2018-10-17T14:10:07.229Z,69
2018-10-17T14:15:08.198Z,68.6
2018-10-17T14:20:08.977Z,67.1
2018-10-17T14:25:07.326Z,65.4
2018-10-17T14:30:07.454Z,67.3
2018-10-17T14:35:07.074Z,65.3
2018-10-17T14:40:07.671Z,66.4
2018-10-17T14:45:07.421Z,66.4
2018-10-17T14:50:07.732Z,69.3
2018-10-17T14:55:07.429Z,67.9
2018-10-17T15:00:08.021Z,69.3
2018-10-17T15:05:07.504Z,68.8
2018-10-17T15:10:07.477Z,70.4
2018-10-17T15:15:08.398Z,68.2
2018-10-17T15:20:07.354Z,67
2018-10-17T15:25:07.355Z,67.1
2018-10-17T15:30:08.203Z,66.8
2018-10-17T15:35:07.084Z,67.9
2018-10-17T15:40:07.222Z,69.5
2018-10-17T15:45:07.532Z,68.3
2018-10-17T15:50:07.183Z,68.7
2018-10-17T15:55:07.058Z,68.8
2018-10-17T16:00:07.570Z,68.4
2018-10-17T16:05:07.141Z,70.3
2018-10-17T16:10:06.925Z,68.2
2018-10-17T16:15:07.417Z,69.7
2018-10-17T16:20:07.412Z,70.1
2018-10-17T16:25:07.202Z,67.9
2018-10-17T16:30:07.858Z,68.2
2018-10-17T16:35:07.384Z,67.8
2018-10-17T16:40:07.145Z,67.4
2018-10-17T16:45:07.173Z,67.9
2018-10-17T16:50:07.143Z,69.9
2018-10-17T16:55:06.860Z,73
2018-10-17T17:00:07.183Z,73.1
2018-10-17T17:05:07.016Z,72.2
2018-10-17T17:10:07.011Z,72.3
2018-10-17T17:15:07.161Z,73.4
2018-10-17T17:20:07.113Z,73.9
2018-10-17T17:25:07.000Z,73.7
2018-10-17T17:30:07.098Z,73.7
2018-10-17T17:35:07.086Z,74.7
2018-10-17T17:40:07.126Z,74.3
2018-10-17T17:45:07.021Z,75
2018-10-17T17:50:07.099Z,73.8
2018-10-17T17:55:06.852Z,74.7
2018-10-17T18:00:07.761Z,75.6
2018-10-17T18:05:07.136Z,75.2
2018-10-17T18:10:06.869Z,75.6
2018-10-17T18:15:06.886Z,75.9
2018-10-17T18:20:06.956Z,76.5
2018-10-17T18:25:06.704Z,75.9
2018-10-17T18:30:06.836Z,76.1
2018-10-17T18:35:07.003Z,74.7
2018-10-17T18:40:07.152Z,76
2018-10-17T18:45:07.174Z,74.7
2018-10-17T18:50:06.748Z,77
2018-10-17T18:55:07.149Z,75.9
2018-10-17T19:00:06.879Z,75.2
2018-10-17T19:05:06.742Z,75.1
2018-10-17T19:10:06.720Z,74.2
2018-10-17T19:15:07.096Z,76.3
2018-10-17T19:20:07.275Z,77.4
2018-10-17T19:25:06.968Z,79.9
2018-10-17T19:30:07.254Z,80
2018-10-17T19:35:06.995Z,80.2
2018-10-17T19:40:07.156Z,80.9
2018-10-17T19:45:07.295Z,80.9
2018-10-17T19:50:07.012Z,80
2018-10-17T19:55:06.974Z,79.6
2018-10-17T20:00:07.862Z,78.4
2018-10-17T20:05:06.949Z,80.3
2018-10-17T20:10:06.854Z,78.8
2018-10-17T20:15:07.527Z,78.5
2018-10-17T20:20:07.600Z,80.5
2018-10-17T20:25:06.787Z,81.4
2018-10-17T20:30:06.980Z,81.5
2018-10-17T20:35:07.399Z,82
2018-10-17T20:40:07.605Z,82.4
2018-10-17T20:45:08.494Z,82.4
2018-10-17T20:50:06.869Z,82.8
2018-10-17T20:55:06.651Z,83.3
2018-10-17T21:00:07.586Z,84
2018-10-17T21:05:06.875Z,83.9
2018-10-17T21:10:06.871Z,83.1
2018-10-17T21:15:07.624Z,81
2018-10-17T21:50:17.170Z,80.3
2018-10-17T21:55:11.513Z,81.4
2018-10-17T22:00:11.864Z,82.5
2018-10-17T22:05:11.958Z,81.3
2018-10-17T22:10:11.593Z,83.6
2018-10-17T22:15:11.685Z,83.2
2018-10-17T22:20:11.732Z,83.2
2018-10-17T22:25:11.753Z,84.9
2018-10-17T22:30:11.672Z,85.6
2018-10-17T22:35:11.834Z,83.9
2018-10-17T22:40:11.601Z,80.7
2018-10-17T22:45:11.835Z,81.8
2018-10-17T22:50:12.116Z,85.1
2018-10-17T22:55:11.894Z,86.6
2018-10-17T23:00:11.553Z,86.5
2018-10-17T23:05:11.760Z,86.4
2018-10-17T23:10:11.589Z,87.1
2018-10-17T23:15:11.838Z,86.7
2018-10-17T23:20:11.554Z,86.5
2018-10-17T23:25:12.180Z,86.1
2018-10-17T23:30:12.756Z,87.3
2018-10-17T23:35:11.823Z,87.5
2018-10-17T23:40:11.676Z,88
2018-10-17T23:45:11.564Z,88
2018-10-17T23:50:11.687Z,87.4
2018-10-17T23:55:11.753Z,88.1
